Time;durP1;ratioP1;P1;durP2;ratioP2;P2;SDS_P1;SDS_P2;PMS_P1;PMS_P2;Temp;Humidity;BMP_temperature;BMP_pressure;BME280_temperature;BME280_humidity;BME280_pressure;Samples;Min_cycle;Max_cycle;Signal;HPM_P1;HPM_P2
2022/08/21 00:00:44;;;;;;;8.50;5.30;;;16.80;99.90;;;;;;4906201;29;20040;-76
2022/08/21 00:03:11;;;;;;;7.93;5.18;;;16.80;99.90;;;;;;4920941;29;20043;-76
2022/08/21 00:05:41;;;;;;;9.25;5.20;;;16.80;99.90;;;;;;4920590;29;20114;-76
2022/08/21 00:08:07;;;;;;;9.32;5.60;;;16.80;99.90;;;;;;4920128;29;20122;-76
2022/08/21 00:10:33;;;;;;;8.82;5.97;;;16.70;99.90;;;;;;4936951;29;20052;-76
2022/08/21 00:13:02;;;;;;;11.23;5.93;;;16.70;99.90;;;;;;4919364;29;20124;-76
2022/08/21 00:15:30;;;;;;;9.27;5.68;;;16.70;99.90;;;;;;4936033;29;20448;-76
2022/08/21 00:17:56;;;;;;;11.05;6.35;;;16.60;99.90;;;;;;4934484;29;20126;-76
2022/08/21 00:20:23;;;;;;;13.07;6.03;;;16.70;99.90;;;;;;4919655;29;20118;-77
2022/08/21 00:22:49;;;;;;;9.60;6.75;;;16.60;99.90;;;;;;4905055;29;20036;-76
2022/08/21 00:25:16;;;;;;;9.80;5.95;;;16.60;99.90;;;;;;4920491;29;20050;-76
2022/08/21 00:27:43;;;;;;;9.98;5.65;;;16.50;99.90;;;;;;4936445;29;20047;-76
2022/08/21 00:30:12;;;;;;;9.85;6.20;;;16.50;99.90;;;;;;4936900;29;20498;-76
2022/08/21 00:32:39;;;;;;;10.02;6.20;;;16.50;99.90;;;;;;4920228;29;20488;-76
2022/08/21 00:35:08;;;;;;;8.98;6.25;;;16.40;99.90;;;;;;4919567;29;20083;-76
2022/08/21 00:37:34;;;;;;;11.20;6.85;;;16.40;99.90;;;;;;4933085;29;20044;-76
2022/08/21 00:40:00;;;;;;;10.00;5.85;;;16.40;99.90;;;;;;4936053;29;20043;-76
2022/08/21 00:42:26;;;;;;;13.82;5.78;;;16.40;99.90;;;;;;4935351;29;20070;-76
2022/08/21 00:44:52;;;;;;;8.60;5.90;;;16.40;99.90;;;;;;4935136;29;20520;-77
2022/08/21 00:47:19;;;;;;;8.38;6.07;;;16.40;99.90;;;;;;4935307;29;20043;-76
2022/08/21 00:49:45;;;;;;;11.73;5.90;;;16.40;99.90;;;;;;4935667;29;20587;-77
2022/08/21 00:52:16;;;;;;;11.15;6.03;;;16.30;99.90;;;;;;4919140;29;20048;-76
2022/08/21 00:54:44;;;;;;;11.02;6.88;;;16.40;99.90;;;;;;4935832;29;20114;-76
2022/08/21 00:57:15;;;;;;;9.68;6.00;;;16.30;99.90;;;;;;4919987;29;20043;-76
2022/08/21 00:59:45;;;;;;;8.40;5.70;;;16.30;99.90;;;;;;4931937;29;20075;-76
2022/08/21 01:02:11;;;;;;;8.18;6.05;;;16.30;99.90;;;;;;4936283;29;20115;-75
2022/08/21 01:04:38;;;;;;;8.32;6.70;;;16.30;99.90;;;;;;4919027;29;20043;-76
2022/08/21 01:07:04;;;;;;;8.60;6.30;;;16.30;99.90;;;;;;4919935;29;20039;-76
2022/08/21 01:09:29;;;;;;;9.98;5.85;;;16.20;99.90;;;;;;4919841;29;20063;-76
2022/08/21 01:11:55;;;;;;;10.43;6.30;;;16.20;99.90;;;;;;4934491;29;20093;-76
2022/08/21 01:14:21;;;;;;;9.65;5.32;;;16.20;99.90;;;;;;4919303;29;20484;-76
2022/08/21 01:16:51;;;;;;;7.22;5.70;;;16.20;99.90;;;;;;4920042;29;20044;-76
2022/08/21 01:19:19;;;;;;;9.18;6.47;;;16.20;99.90;;;;;;4935301;29;20429;-76
2022/08/21 01:21:45;;;;;;;10.27;6.20;;;16.10;99.90;;;;;;4935712;29;20079;-76
2022/08/21 01:24:12;;;;;;;9.98;6.18;;;16.10;99.90;;;;;;4920303;29;20154;-76
2022/08/21 01:26:38;;;;;;;8.50;5.47;;;16.00;99.90;;;;;;4920039;29;20062;-76
2022/08/21 01:29:27;;;;;;;12.20;6.65;;;16.00;99.90;;;;;;4919533;29;20048;-76
2022/08/21 01:31:52;;;;;;;10.90;6.25;;;16.00;99.90;;;;;;4935126;29;20134;-76
2022/08/21 01:34:18;;;;;;;7.28;5.57;;;15.90;99.90;;;;;;4933541;29;20186;-76
2022/08/21 01:36:45;;;;;;;9.52;5.85;;;15.80;99.90;;;;;;4933233;29;20130;-76
2022/08/21 01:39:11;;;;;;;8.07;6.00;;;15.80;99.90;;;;;;4920122;29;20053;-76
2022/08/21 01:41:36;;;;;;;7.55;5.95;;;15.80;99.90;;;;;;4917758;29;20040;-76
2022/08/21 01:44:02;;;;;;;7.13;5.22;;;15.80;99.90;;;;;;4919423;29;20123;-76
2022/08/21 01:46:28;;;;;;;7.28;5.57;;;15.70;99.90;;;;;;4934774;29;20055;-76
2022/08/21 01:48:54;;;;;;;8.15;5.70;;;15.70;99.90;;;;;;4919449;29;20099;-76
2022/08/21 01:51:20;;;;;;;10.73;6.18;;;15.70;99.90;;;;;;4934964;29;20127;-76
2022/08/21 01:53:46;;;;;;;10.02;6.15;;;15.70;99.90;;;;;;4918465;29;20039;-76
2022/08/21 01:56:14;;;;;;;7.65;5.75;;;15.60;99.90;;;;;;4931678;29;20135;-76
2022/08/21 01:58:43;;;;;;;9.13;5.82;;;15.60;99.90;;;;;;4934935;29;20042;-76
2022/08/21 02:01:09;;;;;;;7.93;5.65;;;15.60;99.90;;;;;;4934567;29;20429;-76
2022/08/21 02:03:35;;;;;;;11.60;6.43;;;15.50;99.90;;;;;;4934136;29;20126;-76
2022/08/21 02:06:01;;;;;;;8.32;6.00;;;15.50;99.90;;;;;;4934775;29;20419;-76
2022/08/21 02:08:28;;;;;;;8.98;6.05;;;15.50;99.90;;;;;;4900681;29;20048;-76
2022/08/21 02:10:54;;;;;;;9.82;6.05;;;15.50;99.90;;;;;;4946882;28;20043;-76
2022/08/21 02:13:20;;;;;;;10.70;6.25;;;15.50;99.90;;;;;;4918821;29;20475;-76
2022/08/21 02:15:46;;;;;;;8.45;5.90;;;15.40;99.90;;;;;;4934433;29;20050;-76
2022/08/21 02:18:12;;;;;;;10.23;5.72;;;15.50;99.90;;;;;;4932846;29;20535;-76
2022/08/21 02:20:40;;;;;;;14.07;6.47;;;15.50;99.90;;;;;;4902422;29;20032;-76
2022/08/21 02:23:08;;;;;;;9.20;6.45;;;15.40;99.90;;;;;;4918349;29;20036;-76
2022/08/21 02:25:34;;;;;;;9.88;6.80;;;15.50;99.90;;;;;;4901145;29;20040;-76
2022/08/21 02:28:04;;;;;;;12.52;7.32;;;15.40;99.90;;;;;;4917505;29;20132;-76
2022/08/21 02:30:34;;;;;;;10.45;7.63;;;15.40;99.90;;;;;;4926877;29;20051;-76
2022/08/21 02:33:00;;;;;;;10.63;7.75;;;15.30;99.90;;;;;;4918145;29;20509;-76
2022/08/21 02:35:27;;;;;;;14.32;8.60;;;15.30;99.90;;;;;;4933851;29;20126;-76
2022/08/21 02:37:56;;;;;;;10.32;7.80;;;15.20;99.90;;;;;;4932221;29;20044;-76
2022/08/21 02:40:25;;;;;;;10.32;8.05;;;15.20;99.90;;;;;;4933449;29;20027;-76
2022/08/21 02:42:52;;;;;;;9.90;8.55;;;15.10;99.90;;;;;;4916760;29;20119;-76
2022/08/21 02:45:17;;;;;;;13.60;9.02;;;15.10;99.90;;;;;;4913266;29;20055;-76
2022/08/21 02:47:51;;;;;;;14.68;8.70;;;15.10;99.90;;;;;;4915617;29;20055;-76
2022/08/21 02:50:24;;;;;;;15.60;8.90;;;15.00;99.90;;;;;;4932310;29;20377;-76
2022/08/21 02:52:52;;;;;;;12.32;8.60;;;15.00;99.90;;;;;;4933130;29;20091;-76
2022/08/21 02:55:20;;;;;;;9.57;8.05;;;15.00;99.90;;;;;;4917553;29;20058;-76
2022/08/21 02:57:47;;;;;;;11.40;8.30;;;14.90;99.90;;;;;;4933530;29;20118;-76
2022/08/21 03:00:14;;;;;;;11.05;8.40;;;14.90;99.90;;;;;;4913858;29;20648;-76
2022/08/21 03:02:40;;;;;;;11.95;8.77;;;14.90;99.90;;;;;;4930092;29;20044;-76
2022/08/21 03:05:08;;;;;;;11.43;8.35;;;14.90;99.90;;;;;;4930765;29;20527;-76
2022/08/21 03:07:35;;;;;;;14.90;8.05;;;14.90;99.90;;;;;;4917069;29;20174;-76
2022/08/21 03:10:01;;;;;;;10.60;7.68;;;14.90;99.90;;;;;;4917782;29;20458;-76
2022/08/21 03:12:26;;;;;;;8.70;7.70;;;14.90;99.90;;;;;;4932439;29;20079;-77
2022/08/21 03:14:52;;;;;;;13.82;7.97;;;14.90;99.90;;;;;;4917426;29;20040;-76
2022/08/21 03:17:17;;;;;;;11.65;8.48;;;14.80;99.90;;;;;;4917813;29;20040;-76
2022/08/21 03:19:43;;;;;;;12.23;8.40;;;14.80;99.90;;;;;;4915148;29;20032;-76
2022/08/21 03:22:09;;;;;;;13.00;8.55;;;14.80;99.90;;;;;;4899799;29;20040;-76
2022/08/21 03:24:34;;;;;;;10.52;7.97;;;14.80;99.90;;;;;;4933838;29;20044;-76
2022/08/21 03:27:00;;;;;;;13.10;8.50;;;14.80;99.90;;;;;;4930955;29;20059;-76
2022/08/21 03:29:26;;;;;;;10.60;7.95;;;14.80;99.90;;;;;;4916962;29;20091;-76
2022/08/21 03:31:54;;;;;;;12.38;8.10;;;14.80;99.90;;;;;;4933239;29;20124;-76
2022/08/21 03:34:20;;;;;;;11.60;8.13;;;14.70;99.90;;;;;;4931313;29;20295;-76
2022/08/21 03:36:48;;;;;;;10.50;8.52;;;14.70;99.90;;;;;;4914123;29;20047;-76
2022/08/21 03:39:14;;;;;;;12.05;8.48;;;14.70;99.90;;;;;;4932033;29;20062;-76
2022/08/21 03:41:40;;;;;;;11.75;8.60;;;14.70;99.90;;;;;;4916727;29;20506;-76
2022/08/21 03:44:06;;;;;;;8.63;7.70;;;14.70;99.90;;;;;;4917104;29;20119;-76
2022/08/21 03:46:31;;;;;;;12.02;7.93;;;14.60;99.90;;;;;;4914668;29;20335;-76
2022/08/21 03:48:57;;;;;;;12.00;8.07;;;14.60;99.90;;;;;;4901176;29;20051;-76
2022/08/21 03:51:23;;;;;;;9.88;7.25;;;14.60;99.90;;;;;;4928029;29;20103;-76
2022/08/21 03:53:48;;;;;;;12.82;7.95;;;14.60;99.90;;;;;;4930082;29;20054;-76
2022/08/21 03:56:16;;;;;;;10.63;7.60;;;14.60;99.90;;;;;;4882769;29;20048;-76
2022/08/21 03:58:42;;;;;;;11.23;7.72;;;14.60;99.90;;;;;;4932799;29;20126;-76
2022/08/21 04:01:08;;;;;;;9.63;6.97;;;14.60;99.90;;;;;;4931693;29;20035;-76
2022/08/21 04:03:36;;;;;;;10.23;7.55;;;14.60;99.90;;;;;;4916926;29;20098;-76
2022/08/21 04:06:02;;;;;;;11.30;7.82;;;14.60;99.90;;;;;;4932762;29;20046;-76
2022/08/21 04:08:27;;;;;;;9.15;6.95;;;14.60;99.90;;;;;;4931392;29;20043;-76
2022/08/21 04:10:56;;;;;;;13.00;7.50;;;14.60;99.90;;;;;;4931985;29;20381;-76
2022/08/21 04:13:22;;;;;;;11.70;7.63;;;14.50;99.90;;;;;;4930582;29;20048;-76
2022/08/21 04:15:48;;;;;;;8.32;6.45;;;14.50;99.90;;;;;;4916926;29;20954;-76
2022/08/21 04:18:14;;;;;;;9.90;6.57;;;14.50;99.90;;;;;;4931954;29;20535;-76
2022/08/21 04:20:42;;;;;;;8.30;6.00;;;14.50;99.90;;;;;;4900819;29;20114;-76
2022/08/21 04:23:08;;;;;;;8.73;5.82;;;14.50;99.90;;;;;;4932546;29;20180;-76
2022/08/21 04:25:33;;;;;;;9.40;5.97;;;14.50;99.90;;;;;;4915898;29;20478;-76
2022/08/21 04:27:59;;;;;;;10.00;6.32;;;14.50;99.90;;;;;;4900368;29;20054;-76
2022/08/21 04:30:25;;;;;;;8.70;6.47;;;14.40;99.90;;;;;;4932243;29;20039;-76
2022/08/21 04:32:51;;;;;;;10.48;6.40;;;14.50;99.90;;;;;;4932381;29;20047;-76
2022/08/21 04:35:20;;;;;;;8.68;5.95;;;14.50;99.90;;;;;;4932915;29;20043;-76
2022/08/21 04:37:46;;;;;;;8.93;5.50;;;14.50;99.90;;;;;;4933052;29;20065;-76
2022/08/21 04:40:14;;;;;;;7.57;5.30;;;14.50;99.90;;;;;;4933063;29;20464;-76
2022/08/21 04:42:49;;;;;;;9.57;5.70;;;14.40;99.90;;;;;;4919657;29;20036;-76
2022/08/21 04:45:31;;;;;;;11.97;6.67;;;14.50;99.90;;;;;;4935105;29;20091;-76
2022/08/21 04:47:59;;;;;;;8.25;5.95;;;14.50;99.90;;;;;;4918967;29;20453;-76
2022/08/21 04:50:49;;;;;;;7.82;5.63;;;14.40;99.90;;;;;;4936540;29;20039;-76
2022/08/21 04:53:22;;;;;;;11.85;5.20;;;14.50;99.90;;;;;;4931003;29;20107;-77
2022/08/21 04:55:49;;;;;;;9.98;5.85;;;14.50;99.90;;;;;;4945042;28;20050;-76
2022/08/21 04:58:18;;;;;;;7.82;5.60;;;14.50;99.90;;;;;;4935629;29;20107;-76
2022/08/21 05:00:45;;;;;;;9.45;5.70;;;14.50;99.90;;;;;;4919569;29;20035;-76
2022/08/21 05:03:12;;;;;;;7.80;4.93;;;14.50;99.90;;;;;;4920827;29;20056;-76
2022/08/21 05:05:39;;;;;;;8.93;5.63;;;14.50;99.90;;;;;;4933694;29;20043;-76
2022/08/21 05:08:07;;;;;;;12.73;5.53;;;14.50;99.90;;;;;;4920318;29;20142;-76
2022/08/21 05:10:33;;;;;;;7.97;5.93;;;14.50;99.90;;;;;;4936269;29;20032;-76
2022/08/21 05:13:00;;;;;;;9.77;5.25;;;14.50;99.90;;;;;;4920420;29;20469;-76
2022/08/21 05:15:26;;;;;;;10.88;5.53;;;14.50;99.90;;;;;;4929896;29;20103;-76
2022/08/21 05:17:52;;;;;;;8.48;5.57;;;14.50;99.90;;;;;;4917472;29;20489;-76
2022/08/21 05:20:19;;;;;;;7.65;5.20;;;14.60;99.90;;;;;;4935365;29;20421;-76
2022/08/21 05:22:45;;;;;;;10.18;5.85;;;14.60;99.90;;;;;;4920654;29;20096;-76
2022/08/21 05:25:11;;;;;;;8.95;6.00;;;14.80;99.90;;;;;;4920157;29;20083;-76
2022/08/21 05:27:38;;;;;;;9.32;5.65;;;14.60;99.90;;;;;;4919043;29;20043;-76
2022/08/21 05:30:08;;;;;;;8.73;5.75;;;14.60;99.90;;;;;;4918862;29;20077;-76
2022/08/21 05:32:35;;;;;;;8.07;5.88;;;14.70;99.90;;;;;;4934645;29;20047;-76
2022/08/21 05:35:01;;;;;;;9.68;5.82;;;14.70;99.90;;;;;;4935525;29;20047;-76
2022/08/21 05:37:26;;;;;;;8.60;6.00;;;14.70;99.90;;;;;;4935572;29;20047;-76
2022/08/21 05:39:52;;;;;;;9.45;6.38;;;14.70;99.90;;;;;;4903878;29;20039;-76
2022/08/21 05:42:18;;;;;;;10.02;6.10;;;14.80;99.90;;;;;;4918385;29;20082;-76
2022/08/21 05:44:43;;;;;;;9.88;6.10;;;14.80;99.90;;;;;;4935161;29;20056;-76
2022/08/21 05:47:10;;;;;;;9.05;5.88;;;14.80;99.90;;;;;;4917189;29;20054;-76
2022/08/21 05:49:36;;;;;;;8.68;5.75;;;14.90;99.90;;;;;;4915936;29;20687;-76
2022/08/21 05:52:03;;;;;;;9.18;5.80;;;14.90;99.90;;;;;;4919391;29;20071;-76
2022/08/21 05:54:29;;;;;;;10.38;5.88;;;15.00;99.90;;;;;;4917331;29;20036;-76
2022/08/21 05:56:55;;;;;;;13.27;6.00;;;15.00;99.90;;;;;;4919462;29;20044;-76
2022/08/21 05:59:21;;;;;;;10.50;5.93;;;15.10;99.90;;;;;;4919467;29;20052;-76
2022/08/21 06:01:47;;;;;;;10.15;6.68;;;15.10;99.90;;;;;;4900403;29;20051;-76
2022/08/21 06:04:13;;;;;;;7.07;5.18;;;15.10;99.90;;;;;;4933207;29;20042;-76
2022/08/21 06:06:39;;;;;;;10.95;5.78;;;15.20;99.90;;;;;;4935248;29;20396;-76
2022/08/21 06:09:05;;;;;;;10.90;6.13;;;15.30;99.90;;;;;;4918936;29;20493;-76
2022/08/21 06:11:32;;;;;;;8.73;5.60;;;15.40;99.90;;;;;;4919193;29;20047;-77
2022/08/21 06:13:58;;;;;;;10.75;5.70;;;15.40;99.90;;;;;;4919607;29;20107;-76
2022/08/21 06:16:25;;;;;;;8.68;5.50;;;15.50;99.90;;;;;;4903650;29;20039;-76
2022/08/21 06:18:51;;;;;;;13.18;5.88;;;15.50;99.90;;;;;;4935024;29;20043;-76
2022/08/21 06:21:18;;;;;;;9.23;5.50;;;15.60;99.90;;;;;;4919543;29;20503;-76
2022/08/21 06:23:44;;;;;;;8.63;5.53;;;15.70;99.90;;;;;;4918521;29;20040;-76
2022/08/21 06:26:13;;;;;;;12.85;5.03;;;15.70;99.90;;;;;;4934954;29;20055;-76
2022/08/21 06:28:39;;;;;;;10.07;5.20;;;15.80;99.90;;;;;;4932831;29;20039;-76
2022/08/21 06:31:15;;;;;;;9.13;4.90;;;15.90;99.90;;;;;;4935115;29;20039;-76
2022/08/21 06:33:41;;;;;;;10.43;5.60;;;16.00;99.90;;;;;;4926273;29;20058;-76
2022/08/21 06:36:07;;;;;;;9.75;5.20;;;16.00;99.90;;;;;;4933550;29;20040;-76
2022/08/21 06:38:32;;;;;;;11.35;5.10;;;16.10;99.90;;;;;;4918353;29;20047;-77
2022/08/21 06:40:58;;;;;;;8.80;5.22;;;16.20;99.90;;;;;;4918410;29;20099;-76
2022/08/21 06:43:23;;;;;;;10.52;5.22;;;16.20;99.90;;;;;;4934210;29;20066;-76
2022/08/21 06:45:49;;;;;;;7.93;4.28;;;16.40;99.90;;;;;;4934236;29;20135;-76
2022/08/21 06:48:15;;;;;;;8.57;5.70;;;16.50;99.90;;;;;;4919083;29;20048;-76
2022/08/21 06:50:41;;;;;;;9.90;4.10;;;16.80;99.90;;;;;;4914475;29;20048;-77
2022/08/21 06:53:09;;;;;;;8.50;4.32;;;17.30;99.90;;;;;;4932172;29;20051;-76
2022/08/21 06:55:35;;;;;;;6.32;4.13;;;17.70;99.90;;;;;;4931902;29;20063;-76
2022/08/21 06:58:02;;;;;;;6.80;4.07;;;18.20;99.90;;;;;;4902024;29;20052;-76
2022/08/21 07:00:29;;;;;;;7.03;3.30;;;18.60;99.90;;;;;;4916919;29;20158;-76
2022/08/21 07:02:55;;;;;;;8.50;3.63;;;19.10;99.90;;;;;;4930288;29;20043;-76
2022/08/21 07:05:21;;;;;;;11.52;3.72;;;19.40;99.90;;;;;;4931186;29;20047;-76
2022/08/21 07:07:47;;;;;;;8.00;3.58;;;19.80;99.90;;;;;;4917713;29;20039;-76
2022/08/21 07:10:14;;;;;;;7.72;3.15;;;20.20;99.90;;;;;;4933267;29;20480;-76
2022/08/21 07:12:41;;;;;;;10.98;3.17;;;20.40;99.90;;;;;;4931030;29;20043;-75
2022/08/21 07:15:07;;;;;;;6.28;2.90;;;20.70;99.90;;;;;;4917826;29;20040;-76
2022/08/21 07:17:33;;;;;;;5.95;2.40;;;20.90;99.90;;;;;;4933758;29;20046;-76
2022/08/21 07:19:59;;;;;;;8.73;4.00;;;21.00;99.90;;;;;;4930852;29;20130;-76
2022/08/21 07:22:27;;;;;;;7.55;3.10;;;21.20;99.90;;;;;;4916425;29;20123;-77
2022/08/21 07:24:53;;;;;;;7.70;3.00;;;21.40;99.90;;;;;;4912337;29;20150;-76
2022/08/21 07:27:19;;;;;;;9.13;3.17;;;21.50;99.90;;;;;;4931280;29;20072;-76
2022/08/21 07:29:44;;;;;;;8.10;3.17;;;21.60;99.90;;;;;;4915002;29;20040;-76
2022/08/21 07:32:10;;;;;;;14.20;3.97;;;21.70;99.90;;;;;;4913552;29;20107;-76
2022/08/21 07:34:36;;;;;;;7.60;3.22;;;21.70;99.90;;;;;;4931680;29;20048;-77
2022/08/21 07:37:02;;;;;;;9.88;3.60;;;21.90;99.90;;;;;;4933363;29;20039;-77
2022/08/21 07:39:27;;;;;;;11.25;3.40;;;22.00;99.90;;;;;;4911434;29;20046;-76
2022/08/21 07:41:53;;;;;;;7.82;3.22;;;22.20;99.90;;;;;;4912562;29;20048;-76
2022/08/21 07:44:19;;;;;;;8.13;3.13;;;22.20;99.90;;;;;;4916817;29;20056;-76
2022/08/21 07:46:44;;;;;;;11.98;3.70;;;22.20;99.90;;;;;;4918069;29;20048;-76
2022/08/21 07:49:10;;;;;;;7.85;3.45;;;22.30;99.90;;;;;;4901586;29;20115;-75
2022/08/21 07:51:36;;;;;;;7.50;3.40;;;22.40;99.90;;;;;;4916671;29;20039;-75
2022/08/21 07:54:02;;;;;;;10.50;3.25;;;22.50;99.90;;;;;;4913493;29;20132;-76
2022/08/21 07:56:29;;;;;;;9.95;3.00;;;22.50;99.90;;;;;;4905794;29;20036;-77
2022/08/21 07:58:57;;;;;;;7.30;1.95;;;22.60;99.90;;;;;;4931505;29;20043;-76
2022/08/21 08:01:23;;;;;;;7.38;2.10;;;22.50;99.90;;;;;;4913406;29;20091;-76
2022/08/21 08:03:49;;;;;;;6.47;1.92;;;22.40;99.90;;;;;;4931302;29;20035;-77
2022/08/21 08:06:18;;;;;;;6.35;1.65;;;22.20;99.90;;;;;;4932841;29;20043;-77
2022/08/21 08:08:44;;;;;;;5.90;1.73;;;22.00;99.90;;;;;;4933429;29;20051;-76
2022/08/21 08:11:11;;;;;;;7.28;1.80;;;21.90;99.90;;;;;;4914604;29;20408;-76
2022/08/21 08:13:42;;;;;;;6.07;1.70;;;21.70;99.90;;;;;;4901521;29;20079;-75
2022/08/21 08:16:08;;;;;;;7.93;1.77;;;21.50;99.90;;;;;;4912896;29;20054;-76
2022/08/21 08:18:33;;;;;;;7.47;2.22;;;21.30;99.90;;;;;;4905556;29;20411;-76
2022/08/21 08:20:59;;;;;;;8.48;2.10;;;21.20;99.90;;;;;;4904687;29;20071;-76
2022/08/21 08:23:26;;;;;;;7.22;2.30;;;21.10;99.90;;;;;;4936621;29;20477;-75
2022/08/21 08:25:51;;;;;;;8.48;2.33;;;21.00;99.90;;;;;;4935771;29;20103;-76
2022/08/21 08:28:17;;;;;;;8.75;2.13;;;21.00;99.90;;;;;;4916817;29;20048;-75
2022/08/21 08:30:45;;;;;;;5.47;2.13;;;20.90;99.90;;;;;;4904272;29;20047;-75
2022/08/21 08:33:11;;;;;;;7.22;1.67;;;20.80;99.90;;;;;;4903677;29;20059;-75
2022/08/21 08:35:36;;;;;;;10.48;2.47;;;20.80;99.90;;;;;;4933374;29;20047;-75
2022/08/21 08:38:03;;;;;;;7.07;2.30;;;20.80;99.90;;;;;;4933922;29;20518;-76
2022/08/21 08:40:37;;;;;;;5.75;2.10;;;20.80;99.90;;;;;;4918119;29;20063;-75
2022/08/21 08:43:03;;;;;;;6.47;2.22;;;20.70;99.90;;;;;;4935123;29;20107;-76
2022/08/21 08:45:31;;;;;;;7.25;2.00;;;20.70;99.90;;;;;;4935933;29;20143;-75
2022/08/21 08:48:05;;;;;;;6.68;2.05;;;20.70;99.90;;;;;;4918384;29;20051;-75
2022/08/21 08:50:39;;;;;;;5.70;1.88;;;20.70;99.90;;;;;;4920281;29;20052;-74
2022/08/21 08:53:26;;;;;;;6.60;1.98;;;20.80;99.90;;;;;;4931054;29;20044;-75
2022/08/21 08:55:52;;;;;;;7.18;2.50;;;20.80;99.90;;;;;;4934174;29;20051;-75
2022/08/21 08:58:32;;;;;;;8.35;2.42;;;20.70;99.90;;;;;;4914167;29;20378;-76
2022/08/21 09:00:59;;;;;;;6.18;2.30;;;20.80;99.90;;;;;;4931420;29;20146;-76
2022/08/21 09:03:26;;;;;;;10.93;2.40;;;20.70;99.90;;;;;;4935235;29;20047;-76
2022/08/21 09:06:24;;;;;;;6.95;2.60;;;20.70;99.90;;;;;;4935670;29;20491;-77
2022/08/21 09:09:08;;;;;;;6.93;2.58;;;20.80;99.90;;;;;;4936044;29;20065;-77
2022/08/21 09:11:56;;;;;;;7.43;3.35;;;20.80;99.90;;;;;;4933798;29;20170;-79
2022/08/21 09:14:49;;;;;;;8.15;2.50;;;20.90;99.90;;;;;;4916784;29;20043;-76
2022/08/21 09:17:40;;;;;;;6.60;2.83;;;20.90;99.90;;;;;;4932230;29;20043;-77
2022/08/21 09:20:28;;;;;;;11.02;3.10;;;20.90;99.90;;;;;;4909412;29;20079;-76
2022/08/21 09:23:19;;;;;;;6.63;2.70;;;21.00;99.90;;;;;;4948684;29;20519;-76
2022/08/21 09:26:01;;;;;;;10.27;2.95;;;21.20;99.90;;;;;;4935161;29;20076;-77
2022/08/21 09:28:30;;;;;;;8.52;3.28;;;21.40;99.90;;;;;;4918935;29;20530;-76
2022/08/21 09:30:57;;;;;;;7.38;2.80;;;21.40;99.90;;;;;;4914937;29;20380;-75
2022/08/21 09:33:23;;;;;;;10.68;3.22;;;21.50;99.90;;;;;;4917859;29;20118;-76
2022/08/21 09:35:57;;;;;;;7.40;2.70;;;21.60;99.90;;;;;;4934077;29;20548;-75
2022/08/21 09:38:41;;;;;;;8.40;2.10;;;21.70;99.90;;;;;;4933599;29;20079;-75
2022/08/21 09:41:10;;;;;;;13.43;3.30;;;21.70;99.90;;;;;;4934162;29;20078;-75
2022/08/21 09:43:37;;;;;;;9.45;3.25;;;21.70;99.90;;;;;;4935316;29;20040;-76
2022/08/21 09:46:21;;;;;;;8.93;2.72;;;21.80;99.90;;;;;;4935141;29;20100;-76
2022/08/21 09:48:49;;;;;;;14.38;3.17;;;21.90;99.90;;;;;;4934413;29;20047;-76
2022/08/21 09:51:20;;;;;;;7.63;2.35;;;21.90;99.90;;;;;;4931690;29;20044;-76
2022/08/21 09:54:06;;;;;;;10.85;2.80;;;22.00;99.90;;;;;;4917720;29;20745;-77
2022/08/21 09:59:37;;;;;;;8.57;2.20;;;22.00;99.90;;;;;;4933115;29;20087;-76
2022/08/21 10:02:30;;;;;;;6.00;2.50;;;21.90;99.90;;;;;;4934284;29;20450;-76
2022/08/21 10:05:03;;;;;;;8.93;2.33;;;21.80;99.90;;;;;;4918604;29;20066;-77
2022/08/21 10:07:31;;;;;;;6.57;1.85;;;21.70;99.90;;;;;;4934603;29;20043;-77
2022/08/21 10:10:05;;;;;;;11.55;3.33;;;21.70;99.90;;;;;;4932960;29;20039;-77
2022/08/21 10:12:56;;;;;;;6.53;2.30;;;21.70;99.90;;;;;;4915487;29;20044;-77
2022/08/21 10:15:31;;;;;;;7.22;2.30;;;21.60;99.90;;;;;;4919040;29;20047;-77
2022/08/21 10:18:15;;;;;;;10.43;2.53;;;21.60;99.90;;;;;;4933443;29;20036;-76
2022/08/21 10:21:04;;;;;;;7.00;2.53;;;21.60;99.90;;;;;;4916257;29;20048;-77
2022/08/21 10:24:11;;;;;;;13.10;2.97;;;21.60;99.90;;;;;;4919286;29;20040;-77
2022/08/21 10:26:57;;;;;;;6.88;2.08;;;21.60;99.90;;;;;;4928302;29;20043;-77
2022/08/21 10:29:54;;;;;;;6.70;2.85;;;21.70;99.90;;;;;;4932255;29;20043;-77
2022/08/21 10:32:31;;;;;;;8.00;2.47;;;21.70;99.90;;;;;;4932756;29;20062;-76
2022/08/21 10:35:21;;;;;;;7.60;2.70;;;21.70;99.90;;;;;;4950234;29;20122;-77
2022/08/21 10:38:03;;;;;;;11.40;3.42;;;21.80;99.90;;;;;;4932419;29;20124;-76
2022/08/21 10:40:44;;;;;;;8.10;2.72;;;21.80;99.90;;;;;;4929099;29;20047;-76
2022/08/21 10:43:23;;;;;;;6.78;2.17;;;21.90;99.90;;;;;;4930204;29;20496;-76
2022/08/21 10:45:58;;;;;;;6.65;2.25;;;21.90;99.90;;;;;;4930905;29;20103;-76
2022/08/21 10:48:44;;;;;;;5.75;2.17;;;22.00;99.90;;;;;;4934135;29;20043;-76
2022/08/21 10:51:15;;;;;;;7.45;2.55;;;22.00;99.90;;;;;;4908734;29;20065;-77
2022/08/21 10:54:06;;;;;;;8.02;2.35;;;22.20;99.90;;;;;;4933354;29;20076;-77
2022/08/21 10:56:38;;;;;;;10.50;2.08;;;22.20;99.90;;;;;;4915722;29;20151;-76
2022/08/21 10:59:22;;;;;;;9.65;2.22;;;22.30;99.90;;;;;;4915131;29;20064;-76
2022/08/21 11:02:41;;;;;;;11.15;3.20;;;22.30;99.90;;;;;;4918503;29;20106;-77
2022/08/21 11:05:11;;;;;;;6.47;2.00;;;22.40;99.90;;;;;;4858019;29;20049;-77
2022/08/21 11:07:51;;;;;;;7.82;2.10;;;22.40;99.90;;;;;;4853932;29;20087;-77
2022/08/21 11:10:27;;;;;;;6.40;2.42;;;22.40;99.90;;;;;;4899433;29;20067;-77
2022/08/21 11:13:26;;;;;;;6.20;2.30;;;22.50;99.90;;;;;;4917072;29;20051;-77
2022/08/21 11:16:15;;;;;;;8.40;2.53;;;22.60;99.90;;;;;;4929030;29;20050;-77
2022/08/21 11:19:06;;;;;;;10.05;3.10;;;22.80;99.90;;;;;;4933396;29;20051;-77
2022/08/21 11:21:42;;;;;;;9.27;2.45;;;22.90;99.90;;;;;;4931403;29;20039;-77
2022/08/21 11:24:21;;;;;;;;;;;23.00;99.90;;;;;;4934493;29;20461;-77
2022/08/21 11:26:50;;;;;;;7.80;2.35;;;23.00;99.90;;;;;;4932205;29;19919;-77
2022/08/21 11:29:24;;;;;;;6.30;2.10;;;23.10;99.90;;;;;;4947954;28;20059;-77
2022/08/21 11:32:24;;;;;;;13.10;2.20;;;23.20;99.90;;;;;;4929748;29;20066;-77
2022/08/21 11:34:50;;;;;;;8.30;2.40;;;23.30;99.90;;;;;;4933488;29;20142;-78
2022/08/21 11:37:32;;;;;;;8.63;2.70;;;23.40;99.90;;;;;;4930454;29;20080;-78
2022/08/21 11:40:16;;;;;;;7.35;2.80;;;23.30;99.90;;;;;;4931052;29;20107;-79
2022/08/21 11:42:51;;;;;;;6.30;2.03;;;23.30;99.90;;;;;;4931808;29;20075;-77
2022/08/21 11:45:33;;;;;;;4.43;1.75;;;23.40;99.90;;;;;;4917233;29;20127;-77
2022/08/21 11:48:31;;;;;;;5.80;1.80;;;23.30;99.90;;;;;;4933328;29;20138;-77
2022/08/21 11:50:59;;;;;;;6.97;2.15;;;23.40;99.90;;;;;;4913246;29;20091;-77
2022/08/21 11:53:37;;;;;;;6.20;2.08;;;23.50;99.90;;;;;;4919836;29;20047;-76
2022/08/21 11:56:14;;;;;;;6.22;2.10;;;23.70;99.90;;;;;;4935599;29;20047;-77
2022/08/21 11:58:51;;;;;;;7.78;2.15;;;23.80;99.90;;;;;;4912804;29;21476;-77
2022/08/21 12:01:21;;;;;;;6.32;2.25;;;23.90;99.90;;;;;;4937111;29;20095;-77
2022/08/21 12:03:59;;;;;;;5.88;2.00;;;24.00;99.90;;;;;;4920634;29;20047;-77
2022/08/21 12:06:40;;;;;;;5.78;1.95;;;23.90;99.90;;;;;;4936894;29;20134;-77
2022/08/21 12:09:10;;;;;;;6.43;2.17;;;23.90;99.90;;;;;;4928619;29;20048;-77
2022/08/21 12:11:59;;;;;;;6.85;2.13;;;23.90;99.90;;;;;;4919720;29;20051;-77
2022/08/21 12:14:43;;;;;;;5.28;1.75;;;23.90;99.90;;;;;;4920040;29;20394;-77
2022/08/21 12:17:18;;;;;;;7.63;2.33;;;23.90;99.90;;;;;;4914619;29;20529;-77
2022/08/21 12:19:45;;;;;;;5.82;1.90;;;24.00;99.90;;;;;;4935692;29;20042;-77
2022/08/21 12:22:13;;;;;;;7.38;2.55;;;24.10;99.90;;;;;;4904301;29;20051;-78
2022/08/21 12:24:41;;;;;;;6.72;2.05;;;24.20;99.90;;;;;;4935672;29;22262;-77
2022/08/21 12:27:25;;;;;;;7.90;2.33;;;24.20;99.90;;;;;;4934928;29;20444;-78
2022/08/21 12:30:01;;;;;;;9.20;1.90;;;24.30;99.90;;;;;;4917864;29;20050;-77
2022/08/21 12:32:30;;;;;;;5.80;2.15;;;24.30;99.90;;;;;;4936095;29;20044;-77
2022/08/21 12:35:00;;;;;;;6.55;2.30;;;24.30;99.90;;;;;;4936489;29;20039;-77
2022/08/21 12:37:40;;;;;;;5.90;1.85;;;24.10;99.90;;;;;;4915807;29;20476;-77
2022/08/21 12:40:17;;;;;;;5.40;1.92;;;24.00;99.90;;;;;;4935289;29;20060;-77
2022/08/21 12:42:49;;;;;;;6.45;1.95;;;23.90;99.90;;;;;;4918329;29;20042;-77
2022/08/21 12:45:37;;;;;;;6.00;1.80;;;23.90;99.90;;;;;;4917967;29;20063;-76
2022/08/21 12:48:12;;;;;;;5.38;2.13;;;24.00;99.90;;;;;;4932656;29;20048;-76
2022/08/21 12:50:46;;;;;;;7.55;2.10;;;24.10;99.90;;;;;;4936054;29;20039;-76
2022/08/21 12:53:33;;;;;;;7.80;2.53;;;24.20;99.90;;;;;;4919891;29;20110;-76
2022/08/21 12:56:03;;;;;;;6.40;2.15;;;24.20;99.60;;;;;;4936103;29;20454;-76
2022/08/21 12:58:30;;;;;;;10.13;2.22;;;24.10;99.90;;;;;;4916224;29;20031;-76
2022/08/21 13:01:03;;;;;;;8.32;2.25;;;24.10;99.90;;;;;;4935968;29;20106;-76
2022/08/21 13:03:31;;;;;;;6.80;2.30;;;24.10;99.90;;;;;;4933105;29;20119;-76